sensor_id;sensor_type;location;lat;lon;timestamp;P1;durP1;ratioP1;P2;durP2;ratioP2
25535;SDS011;13431;51.352;6.412;2022-09-17T00:01:23;9.18;;;2.03;;
25535;SDS011;13431;51.352;6.412;2022-09-17T00:03:54;6.78;;;1.92;;
25535;SDS011;13431;51.352;6.412;2022-09-17T00:06:23;8.27;;;2.60;;
25535;SDS011;13431;51.352;6.412;2022-09-17T00:08:51;11.15;;;2.60;;
25535;SDS011;13431;51.352;6.412;2022-09-17T00:11:20;9.25;;;2.55;;
25535;SDS011;13431;51.352;6.412;2022-09-17T00:13:53;10.38;;;2.67;;
25535;SDS011;13431;51.352;6.412;2022-09-17T00:16:23;5.97;;;2.17;;
25535;SDS011;13431;51.352;6.412;2022-09-17T00:19:12;8.65;;;2.85;;
25535;SDS011;13431;51.352;6.412;2022-09-17T00:21:42;7.95;;;2.10;;
25535;SDS011;13431;51.352;6.412;2022-09-17T00:24:10;7.93;;;2.42;;
25535;SDS011;13431;51.352;6.412;2022-09-17T00:26:39;8.23;;;2.40;;
25535;SDS011;13431;51.352;6.412;2022-09-17T00:29:07;9.18;;;2.53;;
25535;SDS011;13431;51.352;6.412;2022-09-17T00:31:35;9.13;;;2.55;;
25535;SDS011;13431;51.352;6.412;2022-09-17T00:34:04;7.72;;;2.95;;
25535;SDS011;13431;51.352;6.412;2022-09-17T00:36:35;9.63;;;2.97;;
25535;SDS011;13431;51.352;6.412;2022-09-17T00:39:04;6.13;;;2.45;;
25535;SDS011;13431;51.352;6.412;2022-09-17T00:41:34;6.50;;;2.42;;
25535;SDS011;13431;51.352;6.412;2022-09-17T00:47:09;8.68;;;2.58;;
25535;SDS011;13431;51.352;6.412;2022-09-17T00:49:43;8.32;;;2.60;;
25535;SDS011;13431;51.352;6.412;2022-09-17T00:52:13;8.02;;;2.72;;
25535;SDS011;13431;51.352;6.412;2022-09-17T00:54:45;8.43;;;3.00;;
25535;SDS011;13431;51.352;6.412;2022-09-17T00:57:18;7.97;;;3.20;;
25535;SDS011;13431;51.352;6.412;2022-09-17T00:59:45;9.00;;;3.53;;
25535;SDS011;13431;51.352;6.412;2022-09-17T01:02:13;9.43;;;3.55;;
25535;SDS011;13431;51.352;6.412;2022-09-17T01:04:41;7.78;;;2.78;;
25535;SDS011;13431;51.352;6.412;2022-09-17T01:09:58;8.75;;;3.13;;
25535;SDS011;13431;51.352;6.412;2022-09-17T01:15:33;9.80;;;2.90;;
25535;SDS011;13431;51.352;6.412;2022-09-17T01:18:28;9.80;;;3.10;;
25535;SDS011;13431;51.352;6.412;2022-09-17T01:38:09;10.63;;;3.70;;
25535;SDS011;13431;51.352;6.412;2022-09-17T01:41:01;7.40;;;3.42;;
25535;SDS011;13431;51.352;6.412;2022-09-17T01:43:35;10.40;;;3.05;;
25535;SDS011;13431;51.352;6.412;2022-09-17T01:46:22;11.10;;;3.13;;
25535;SDS011;13431;51.352;6.412;2022-09-17T01:48:57;9.65;;;3.10;;
25535;SDS011;13431;51.352;6.412;2022-09-17T01:51:28;7.78;;;2.70;;
25535;SDS011;13431;51.352;6.412;2022-09-17T01:54:03;8.93;;;3.97;;
25535;SDS011;13431;51.352;6.412;2022-09-17T01:56:39;9.88;;;3.50;;
25535;SDS011;13431;51.352;6.412;2022-09-17T01:59:21;11.07;;;3.80;;
25535;SDS011;13431;51.352;6.412;2022-09-17T02:02:44;11.25;;;3.08;;
25535;SDS011;13431;51.352;6.412;2022-09-17T02:04:56;11.25;;;3.22;;
25535;SDS011;13431;51.352;6.412;2022-09-17T02:07:28;7.20;;;2.97;;
25535;SDS011;13431;51.352;6.412;2022-09-17T02:09:59;12.15;;;3.47;;
25535;SDS011;13431;51.352;6.412;2022-09-17T02:12:33;8.82;;;3.42;;
25535;SDS011;13431;51.352;6.412;2022-09-17T02:15:06;11.57;;;2.95;;
25535;SDS011;13431;51.352;6.412;2022-09-17T02:17:56;11.23;;;2.90;;
25535;SDS011;13431;51.352;6.412;2022-09-17T02:20:36;7.78;;;3.17;;
25535;SDS011;13431;51.352;6.412;2022-09-17T02:23:11;15.73;;;3.80;;
25535;SDS011;13431;51.352;6.412;2022-09-17T02:25:47;8.43;;;2.40;;
25535;SDS011;13431;51.352;6.412;2022-09-17T02:28:22;13.50;;;3.33;;
25535;SDS011;13431;51.352;6.412;2022-09-17T02:31:04;11.48;;;3.20;;
25535;SDS011;13431;51.352;6.412;2022-09-17T02:33:32;9.65;;;3.97;;
25535;SDS011;13431;51.352;6.412;2022-09-17T02:36:02;12.73;;;3.33;;
25535;SDS011;13431;51.352;6.412;2022-09-17T02:38:30;7.68;;;2.17;;
25535;SDS011;13431;51.352;6.412;2022-09-17T02:41:04;7.30;;;1.90;;
25535;SDS011;13431;51.352;6.412;2022-09-17T02:46:42;13.43;;;3.10;;
25535;SDS011;13431;51.352;6.412;2022-09-17T02:49:23;7.00;;;2.33;;
25535;SDS011;13431;51.352;6.412;2022-09-17T02:52:22;10.68;;;2.72;;
25535;SDS011;13431;51.352;6.412;2022-09-17T02:55:17;10.73;;;2.63;;
25535;SDS011;13431;51.352;6.412;2022-09-17T02:57:57;8.60;;;2.67;;
25535;SDS011;13431;51.352;6.412;2022-09-17T03:00:35;8.85;;;3.55;;
25535;SDS011;13431;51.352;6.412;2022-09-17T03:03:05;6.45;;;2.05;;
25535;SDS011;13431;51.352;6.412;2022-09-17T03:05:36;8.93;;;2.28;;
25535;SDS011;13431;51.352;6.412;2022-09-17T03:08:06;10.60;;;2.30;;
25535;SDS011;13431;51.352;6.412;2022-09-17T03:10:35;8.68;;;2.55;;
25535;SDS011;13431;51.352;6.412;2022-09-17T03:13:03;8.35;;;2.03;;
25535;SDS011;13431;51.352;6.412;2022-09-17T03:15:30;9.60;;;1.60;;
25535;SDS011;13431;51.352;6.412;2022-09-17T03:17:57;8.52;;;1.88;;
25535;SDS011;13431;51.352;6.412;2022-09-17T03:20:24;10.98;;;2.92;;
25535;SDS011;13431;51.352;6.412;2022-09-17T03:22:52;7.35;;;1.80;;
25535;SDS011;13431;51.352;6.412;2022-09-17T03:25:19;7.45;;;2.25;;
25535;SDS011;13431;51.352;6.412;2022-09-17T03:27:46;9.52;;;2.35;;
25535;SDS011;13431;51.352;6.412;2022-09-17T03:30:14;8.90;;;2.25;;
25535;SDS011;13431;51.352;6.412;2022-09-17T03:32:41;10.55;;;2.08;;
25535;SDS011;13431;51.352;6.412;2022-09-17T03:35:08;8.05;;;2.08;;
25535;SDS011;13431;51.352;6.412;2022-09-17T03:37:35;9.50;;;2.45;;
25535;SDS011;13431;51.352;6.412;2022-09-17T03:40:03;10.10;;;2.53;;
25535;SDS011;13431;51.352;6.412;2022-09-17T03:42:31;6.20;;;1.75;;
25535;SDS011;13431;51.352;6.412;2022-09-17T03:44:58;8.07;;;2.03;;
25535;SDS011;13431;51.352;6.412;2022-09-17T03:47:26;9.60;;;2.65;;
25535;SDS011;13431;51.352;6.412;2022-09-17T03:49:53;11.45;;;2.42;;
25535;SDS011;13431;51.352;6.412;2022-09-17T03:52:20;13.55;;;3.15;;
25535;SDS011;13431;51.352;6.412;2022-09-17T03:54:48;12.00;;;2.17;;
25535;SDS011;13431;51.352;6.412;2022-09-17T03:57:15;8.50;;;1.70;;
25535;SDS011;13431;51.352;6.412;2022-09-17T03:59:42;15.27;;;2.35;;
25535;SDS011;13431;51.352;6.412;2022-09-17T04:02:10;7.70;;;2.50;;
25535;SDS011;13431;51.352;6.412;2022-09-17T04:04:37;11.23;;;2.10;;
25535;SDS011;13431;51.352;6.412;2022-09-17T04:07:05;7.22;;;1.70;;
25535;SDS011;13431;51.352;6.412;2022-09-17T04:09:32;8.18;;;1.67;;
25535;SDS011;13431;51.352;6.412;2022-09-17T04:12:01;7.78;;;2.67;;
25535;SDS011;13431;51.352;6.412;2022-09-17T04:14:28;5.57;;;1.70;;
25535;SDS011;13431;51.352;6.412;2022-09-17T04:16:57;8.82;;;1.88;;
25535;SDS011;13431;51.352;6.412;2022-09-17T04:19:24;6.88;;;2.15;;
25535;SDS011;13431;51.352;6.412;2022-09-17T04:21:52;6.65;;;1.90;;
25535;SDS011;13431;51.352;6.412;2022-09-17T04:24:19;5.82;;;1.75;;
25535;SDS011;13431;51.352;6.412;2022-09-17T04:26:46;8.88;;;1.98;;
25535;SDS011;13431;51.352;6.412;2022-09-17T04:29:14;9.60;;;2.15;;
25535;SDS011;13431;51.352;6.412;2022-09-17T04:31:41;9.40;;;2.00;;
25535;SDS011;13431;51.352;6.412;2022-09-17T04:34:09;7.43;;;1.73;;
25535;SDS011;13431;51.352;6.412;2022-09-17T04:36:36;11.82;;;2.30;;
25535;SDS011;13431;51.352;6.412;2022-09-17T04:39:03;10.40;;;2.42;;
25535;SDS011;13431;51.352;6.412;2022-09-17T04:41:30;8.43;;;2.13;;
25535;SDS011;13431;51.352;6.412;2022-09-17T04:43:58;9.25;;;1.92;;
25535;SDS011;13431;51.352;6.412;2022-09-17T04:46:25;8.30;;;2.28;;
25535;SDS011;13431;51.352;6.412;2022-09-17T04:48:52;7.07;;;1.75;;
25535;SDS011;13431;51.352;6.412;2022-09-17T04:51:20;10.20;;;2.42;;
25535;SDS011;13431;51.352;6.412;2022-09-17T04:53:47;7.07;;;2.20;;
25535;SDS011;13431;51.352;6.412;2022-09-17T04:56:14;7.05;;;1.92;;
25535;SDS011;13431;51.352;6.412;2022-09-17T04:58:42;12.32;;;2.85;;
25535;SDS011;13431;51.352;6.412;2022-09-17T05:01:09;8.05;;;2.20;;
25535;SDS011;13431;51.352;6.412;2022-09-17T05:03:37;7.60;;;1.98;;
25535;SDS011;13431;51.352;6.412;2022-09-17T05:06:04;7.63;;;2.47;;
25535;SDS011;13431;51.352;6.412;2022-09-17T05:08:31;9.55;;;2.45;;
25535;SDS011;13431;51.352;6.412;2022-09-17T05:10:59;8.98;;;2.20;;
25535;SDS011;13431;51.352;6.412;2022-09-17T05:13:26;11.02;;;1.67;;
25535;SDS011;13431;51.352;6.412;2022-09-17T05:15:54;6.78;;;2.33;;
25535;SDS011;13431;51.352;6.412;2022-09-17T05:18:24;10.30;;;2.53;;
25535;SDS011;13431;51.352;6.412;2022-09-17T05:20:52;6.85;;;1.33;;
25535;SDS011;13431;51.352;6.412;2022-09-17T05:23:19;9.82;;;2.05;;
25535;SDS011;13431;51.352;6.412;2022-09-17T05:25:46;11.07;;;2.20;;
25535;SDS011;13431;51.352;6.412;2022-09-17T05:28:13;9.75;;;2.63;;
25535;SDS011;13431;51.352;6.412;2022-09-17T05:30:41;6.80;;;1.83;;
25535;SDS011;13431;51.352;6.412;2022-09-17T05:33:08;4.50;;;1.90;;
25535;SDS011;13431;51.352;6.412;2022-09-17T05:35:35;12.55;;;2.00;;
25535;SDS011;13431;51.352;6.412;2022-09-17T05:38:04;5.40;;;1.50;;
25535;SDS011;13431;51.352;6.412;2022-09-17T05:40:33;6.35;;;1.95;;
25535;SDS011;13431;51.352;6.412;2022-09-17T05:43:01;9.98;;;2.97;;
25535;SDS011;13431;51.352;6.412;2022-09-17T05:45:34;7.57;;;1.80;;
25535;SDS011;13431;51.352;6.412;2022-09-17T05:48:04;11.88;;;2.03;;
25535;SDS011;13431;51.352;6.412;2022-09-17T05:50:32;11.93;;;1.90;;
25535;SDS011;13431;51.352;6.412;2022-09-17T05:53:07;6.93;;;2.13;;
25535;SDS011;13431;51.352;6.412;2022-09-17T05:55:38;8.70;;;2.35;;
25535;SDS011;13431;51.352;6.412;2022-09-17T05:58:10;9.80;;;2.45;;
25535;SDS011;13431;51.352;6.412;2022-09-17T06:00:41;9.27;;;1.80;;
25535;SDS011;13431;51.352;6.412;2022-09-17T06:03:09;7.30;;;1.60;;
25535;SDS011;13431;51.352;6.412;2022-09-17T06:05:37;6.82;;;2.08;;
25535;SDS011;13431;51.352;6.412;2022-09-17T06:08:05;8.60;;;2.40;;
25535;SDS011;13431;51.352;6.412;2022-09-17T06:10:37;6.55;;;1.55;;
25535;SDS011;13431;51.352;6.412;2022-09-17T06:13:04;12.48;;;3.03;;
25535;SDS011;13431;51.352;6.412;2022-09-17T06:15:31;11.32;;;2.60;;
25535;SDS011;13431;51.352;6.412;2022-09-17T06:17:59;5.05;;;1.88;;
25535;SDS011;13431;51.352;6.412;2022-09-17T06:20:26;8.25;;;1.98;;
25535;SDS011;13431;51.352;6.412;2022-09-17T06:22:56;6.55;;;1.58;;
25535;SDS011;13431;51.352;6.412;2022-09-17T06:25:24;8.10;;;1.83;;
25535;SDS011;13431;51.352;6.412;2022-09-17T06:27:52;7.60;;;2.45;;
25535;SDS011;13431;51.352;6.412;2022-09-17T06:30:19;9.90;;;2.30;;
25535;SDS011;13431;51.352;6.412;2022-09-17T06:32:46;7.72;;;2.25;;
25535;SDS011;13431;51.352;6.412;2022-09-17T06:35:14;8.50;;;1.75;;
25535;SDS011;13431;51.352;6.412;2022-09-17T06:37:41;5.28;;;1.63;;
25535;SDS011;13431;51.352;6.412;2022-09-17T06:40:08;5.82;;;1.80;;
25535;SDS011;13431;51.352;6.412;2022-09-17T06:42:36;11.48;;;1.88;;
25535;SDS011;13431;51.352;6.412;2022-09-17T06:45:03;7.53;;;1.60;;
25535;SDS011;13431;51.352;6.412;2022-09-17T06:47:35;12.88;;;2.40;;
25535;SDS011;13431;51.352;6.412;2022-09-17T06:50:03;6.68;;;1.83;;
25535;SDS011;13431;51.352;6.412;2022-09-17T06:52:30;8.35;;;1.67;;
25535;SDS011;13431;51.352;6.412;2022-09-17T06:54:58;7.57;;;2.33;;
25535;SDS011;13431;51.352;6.412;2022-09-17T06:57:25;6.55;;;2.15;;
25535;SDS011;13431;51.352;6.412;2022-09-17T06:59:52;9.35;;;2.70;;
25535;SDS011;13431;51.352;6.412;2022-09-17T07:02:20;3.92;;;1.75;;
25535;SDS011;13431;51.352;6.412;2022-09-17T07:04:47;9.38;;;2.42;;
25535;SDS011;13431;51.352;6.412;2022-09-17T07:07:14;5.82;;;1.67;;
25535;SDS011;13431;51.352;6.412;2022-09-17T07:09:41;4.95;;;1.92;;
25535;SDS011;13431;51.352;6.412;2022-09-17T07:12:09;7.80;;;1.85;;
25535;SDS011;13431;51.352;6.412;2022-09-17T07:14:36;5.20;;;1.73;;
25535;SDS011;13431;51.352;6.412;2022-09-17T07:17:03;3.70;;;1.75;;
25535;SDS011;13431;51.352;6.412;2022-09-17T07:19:31;9.68;;;2.78;;
25535;SDS011;13431;51.352;6.412;2022-09-17T07:21:58;7.63;;;2.53;;
25535;SDS011;13431;51.352;6.412;2022-09-17T07:24:25;6.18;;;1.95;;
25535;SDS011;13431;51.352;6.412;2022-09-17T07:26:58;4.22;;;1.85;;
25535;SDS011;13431;51.352;6.412;2022-09-17T07:29:26;5.38;;;1.88;;
25535;SDS011;13431;51.352;6.412;2022-09-17T07:31:54;7.88;;;1.83;;
25535;SDS011;13431;51.352;6.412;2022-09-17T07:34:21;5.57;;;1.98;;
25535;SDS011;13431;51.352;6.412;2022-09-17T07:36:48;4.00;;;1.50;;
25535;SDS011;13431;51.352;6.412;2022-09-17T07:39:16;6.35;;;1.52;;
25535;SDS011;13431;51.352;6.412;2022-09-17T07:41:43;5.55;;;2.25;;
25535;SDS011;13431;51.352;6.412;2022-09-17T07:44:10;6.05;;;2.00;;
25535;SDS011;13431;51.352;6.412;2022-09-17T07:46:38;5.40;;;1.60;;
25535;SDS011;13431;51.352;6.412;2022-09-17T07:49:05;3.90;;;1.90;;
25535;SDS011;13431;51.352;6.412;2022-09-17T07:51:32;4.65;;;1.60;;
25535;SDS011;13431;51.352;6.412;2022-09-17T07:53:59;7.57;;;1.98;;
25535;SDS011;13431;51.352;6.412;2022-09-17T07:56:28;4.25;;;1.75;;
25535;SDS011;13431;51.352;6.412;2022-09-17T07:58:55;8.52;;;2.60;;
25535;SDS011;13431;51.352;6.412;2022-09-17T08:01:23;7.97;;;2.65;;
25535;SDS011;13431;51.352;6.412;2022-09-17T08:03:51;4.28;;;2.00;;
25535;SDS011;13431;51.352;6.412;2022-09-17T08:06:20;3.92;;;1.77;;
25535;SDS011;13431;51.352;6.412;2022-09-17T08:08:53;4.20;;;2.15;;
25535;SDS011;13431;51.352;6.412;2022-09-17T08:11:22;6.07;;;2.03;;
25535;SDS011;13431;51.352;6.412;2022-09-17T08:14:12;5.10;;;2.08;;
25535;SDS011;13431;51.352;6.412;2022-09-17T08:16:40;7.35;;;1.88;;
25535;SDS011;13431;51.352;6.412;2022-09-17T08:19:08;9.23;;;2.55;;
25535;SDS011;13431;51.352;6.412;2022-09-17T08:21:36;5.05;;;2.33;;
25535;SDS011;13431;51.352;6.412;2022-09-17T08:24:04;10.05;;;2.20;;
25535;SDS011;13431;51.352;6.412;2022-09-17T08:26:31;5.93;;;2.35;;
25535;SDS011;13431;51.352;6.412;2022-09-17T08:28:59;4.95;;;2.35;;
25535;SDS011;13431;51.352;6.412;2022-09-17T08:31:26;4.63;;;2.20;;
25535;SDS011;13431;51.352;6.412;2022-09-17T08:33:56;4.25;;;2.10;;
25535;SDS011;13431;51.352;6.412;2022-09-17T08:36:23;7.95;;;2.90;;
25535;SDS011;13431;51.352;6.412;2022-09-17T08:38:53;9.32;;;2.63;;
25535;SDS011;13431;51.352;6.412;2022-09-17T08:41:25;4.75;;;1.90;;
25535;SDS011;13431;51.352;6.412;2022-09-17T08:50:15;4.93;;;1.77;;
25535;SDS011;13431;51.352;6.412;2022-09-17T08:53:01;4.90;;;2.28;;
25535;SDS011;13431;51.352;6.412;2022-09-17T08:56:03;4.03;;;2.13;;
25535;SDS011;13431;51.352;6.412;2022-09-17T09:01:37;5.28;;;1.92;;
25535;SDS011;13431;51.352;6.412;2022-09-17T09:04:24;2.63;;;1.50;;
25535;SDS011;13431;51.352;6.412;2022-09-17T09:07:16;2.17;;;1.38;;
25535;SDS011;13431;51.352;6.412;2022-09-17T09:09:50;2.47;;;1.60;;
25535;SDS011;13431;51.352;6.412;2022-09-17T09:12:33;4.18;;;2.10;;
25535;SDS011;13431;51.352;6.412;2022-09-17T09:15:07;5.72;;;1.70;;
25535;SDS011;13431;51.352;6.412;2022-09-17T09:17:44;2.67;;;1.30;;
25535;SDS011;13431;51.352;6.412;2022-09-17T09:20:27;4.72;;;1.75;;
25535;SDS011;13431;51.352;6.412;2022-09-17T09:23:26;4.90;;;1.90;;
25535;SDS011;13431;51.352;6.412;2022-09-17T09:34:29;3.15;;;1.63;;
25535;SDS011;13431;51.352;6.412;2022-09-17T09:37:17;5.65;;;1.60;;
25535;SDS011;13431;51.352;6.412;2022-09-17T09:40:02;4.05;;;1.60;;
25535;SDS011;13431;51.352;6.412;2022-09-17T09:42:52;1.70;;;1.27;;
25535;SDS011;13431;51.352;6.412;2022-09-17T09:48:14;4.97;;;1.20;;
25535;SDS011;13431;51.352;6.412;2022-09-17T09:50:49;5.20;;;1.80;;
25535;SDS011;13431;51.352;6.412;2022-09-17T09:53:56;6.05;;;1.58;;
25535;SDS011;13431;51.352;6.412;2022-09-17T09:59:21;6.78;;;1.60;;
25535;SDS011;13431;51.352;6.412;2022-09-17T10:01:48;6.68;;;1.63;;
25535;SDS011;13431;51.352;6.412;2022-09-17T10:04:17;3.13;;;1.50;;
25535;SDS011;13431;51.352;6.412;2022-09-17T10:06:47;6.72;;;1.70;;
25535;SDS011;13431;51.352;6.412;2022-09-17T10:09:17;4.15;;;1.55;;
25535;SDS011;13431;51.352;6.412;2022-09-17T10:11:58;3.72;;;1.85;;
25535;SDS011;13431;51.352;6.412;2022-09-17T10:14:28;2.50;;;1.27;;
25535;SDS011;13431;51.352;6.412;2022-09-17T10:22:36;3.80;;;1.58;;
25535;SDS011;13431;51.352;6.412;2022-09-17T10:25:11;3.60;;;1.58;;
25535;SDS011;13431;51.352;6.412;2022-09-17T10:27:44;3.08;;;1.50;;
25535;SDS011;13431;51.352;6.412;2022-09-17T10:32:44;3.65;;;1.38;;
25535;SDS011;13431;51.352;6.412;2022-09-17T10:35:39;4.70;;;1.50;;
25535;SDS011;13431;51.352;6.412;2022-09-17T10:38:24;2.70;;;1.13;;
25535;SDS011;13431;51.352;6.412;2022-09-17T10:41:09;3.88;;;1.30;;
25535;SDS011;13431;51.352;6.412;2022-09-17T10:43:37;6.45;;;1.50;;
25535;SDS011;13431;51.352;6.412;2022-09-17T10:46:05;3.67;;;1.10;;
25535;SDS011;13431;51.352;6.412;2022-09-17T10:48:43;4.10;;;1.20;;
25535;SDS011;13431;51.352;6.412;2022-09-17T10:51:20;3.70;;;1.35;;
25535;SDS011;13431;51.352;6.412;2022-09-17T10:53:55;2.97;;;1.25;;
25535;SDS011;13431;51.352;6.412;2022-09-17T10:56:33;3.03;;;0.93;;
25535;SDS011;13431;51.352;6.412;2022-09-17T10:59:20;2.50;;;0.98;;
25535;SDS011;13431;51.352;6.412;2022-09-17T11:04:59;3.95;;;0.60;;
25535;SDS011;13431;51.352;6.412;2022-09-17T11:07:38;0.50;;;0.50;;
25535;SDS011;13431;51.352;6.412;2022-09-17T11:10:50;0.40;;;0.40;;
25535;SDS011;13431;51.352;6.412;2022-09-17T11:13:38;3.72;;;0.50;;
25535;SDS011;13431;51.352;6.412;2022-09-17T11:16:21;0.88;;;0.30;;
25535;SDS011;13431;51.352;6.412;2022-09-17T11:19:26;1.00;;;0.60;;
25535;SDS011;13431;51.352;6.412;2022-09-17T11:22:05;1.70;;;0.50;;
25535;SDS011;13431;51.352;6.412;2022-09-17T11:27:25;0.53;;;0.40;;
25535;SDS011;13431;51.352;6.412;2022-09-17T11:30:02;3.15;;;0.65;;
25535;SDS011;13431;51.352;6.412;2022-09-17T11:32:45;0.52;;;0.52;;
25535;SDS011;13431;51.352;6.412;2022-09-17T11:35:24;1.15;;;0.70;;
25535;SDS011;13431;51.352;6.412;2022-09-17T11:41:12;3.15;;;0.82;;
25535;SDS011;13431;51.352;6.412;2022-09-17T11:43:43;3.83;;;1.20;;
25535;SDS011;13431;51.352;6.412;2022-09-17T11:49:04;2.67;;;1.15;;
25535;SDS011;13431;51.352;6.412;2022-09-17T11:51:55;2.67;;;1.10;;
25535;SDS011;13431;51.352;6.412;2022-09-17T11:55:01;2.85;;;1.10;;
25535;SDS011;13431;51.352;6.412;2022-09-17T11:57:34;2.60;;;1.25;;
25535;SDS011;13431;51.352;6.412;2022-09-17T12:00:15;3.20;;;0.90;;
25535;SDS011;13431;51.352;6.412;2022-09-17T12:05:26;2.35;;;1.02;;
25535;SDS011;13431;51.352;6.412;2022-09-17T12:08:08;1.05;;;0.57;;
25535;SDS011;13431;51.352;6.412;2022-09-17T12:13:43;8.77;;;1.05;;
25535;SDS011;13431;51.352;6.412;2022-09-17T12:16:16;1.88;;;0.80;;
25535;SDS011;13431;51.352;6.412;2022-09-17T12:19:30;4.70;;;0.90;;
25535;SDS011;13431;51.352;6.412;2022-09-17T12:21:53;5.32;;;1.30;;
25535;SDS011;13431;51.352;6.412;2022-09-17T12:24:23;2.15;;;0.75;;
25535;SDS011;13431;51.352;6.412;2022-09-17T12:40:27;2.45;;;1.05;;
25535;SDS011;13431;51.352;6.412;2022-09-17T12:59:55;1.65;;;0.80;;
25535;SDS011;13431;51.352;6.412;2022-09-17T13:02:38;3.65;;;0.80;;
25535;SDS011;13431;51.352;6.412;2022-09-17T13:10:39;2.55;;;0.80;;
25535;SDS011;13431;51.352;6.412;2022-09-17T13:24:28;3.38;;;1.10;;
25535;SDS011;13431;51.352;6.412;2022-09-17T13:26:57;2.00;;;0.77;;
25535;SDS011;13431;51.352;6.412;2022-09-17T13:37:53;3.58;;;1.10;;
25535;SDS011;13431;51.352;6.412;2022-09-17T13:40:29;4.55;;;1.20;;
25535;SDS011;13431;51.352;6.412;2022-09-17T13:48:26;0.68;;;0.50;;
25535;SDS011;13431;51.352;6.412;2022-09-17T13:54:01;5.93;;;1.50;;
25535;SDS011;13431;51.352;6.412;2022-09-17T13:59:25;2.22;;;1.00;;
25535;SDS011;13431;51.352;6.412;2022-09-17T14:01:56;4.70;;;1.33;;
25535;SDS011;13431;51.352;6.412;2022-09-17T14:10:26;4.72;;;1.20;;
25535;SDS011;13431;51.352;6.412;2022-09-17T14:12:52;7.60;;;1.58;;
25535;SDS011;13431;51.352;6.412;2022-09-17T14:21:39;4.93;;;1.60;;
25535;SDS011;13431;51.352;6.412;2022-09-17T14:23:45;4.10;;;1.20;;
25535;SDS011;13431;51.352;6.412;2022-09-17T14:26:24;4.43;;;1.27;;
25535;SDS011;13431;51.352;6.412;2022-09-17T14:31:38;4.15;;;1.45;;
25535;SDS011;13431;51.352;6.412;2022-09-17T14:34:09;5.55;;;1.55;;
25535;SDS011;13431;51.352;6.412;2022-09-17T14:36:45;3.60;;;1.27;;
25535;SDS011;13431;51.352;6.412;2022-09-17T14:39:20;3.70;;;1.23;;
25535;SDS011;13431;51.352;6.412;2022-09-17T14:41:50;5.10;;;1.40;;
25535;SDS011;13431;51.352;6.412;2022-09-17T14:44:29;5.30;;;1.10;;
25535;SDS011;13431;51.352;6.412;2022-09-17T14:47:02;6.45;;;1.40;;
25535;SDS011;13431;51.352;6.412;2022-09-17T14:49:35;3.15;;;1.00;;
25535;SDS011;13431;51.352;6.412;2022-09-17T14:52:26;5.60;;;1.25;;
25535;SDS011;13431;51.352;6.412;2022-09-17T14:55:15;5.22;;;1.27;;
25535;SDS011;13431;51.352;6.412;2022-09-17T14:57:52;5.28;;;1.77;;
25535;SDS011;13431;51.352;6.412;2022-09-17T15:00:24;4.22;;;1.17;;
25535;SDS011;13431;51.352;6.412;2022-09-17T15:02:54;5.10;;;1.52;;
25535;SDS011;13431;51.352;6.412;2022-09-17T15:05:29;3.38;;;1.45;;
25535;SDS011;13431;51.352;6.412;2022-09-17T15:08:15;5.63;;;1.55;;
25535;SDS011;13431;51.352;6.412;2022-09-17T15:11:05;4.20;;;1.75;;
25535;SDS011;13431;51.352;6.412;2022-09-17T15:13:40;4.05;;;1.17;;
25535;SDS011;13431;51.352;6.412;2022-09-17T15:16:17;4.63;;;1.33;;
25535;SDS011;13431;51.352;6.412;2022-09-17T15:18:49;3.88;;;1.20;;
25535;SDS011;13431;51.352;6.412;2022-09-17T15:21:38;4.20;;;1.35;;
25535;SDS011;13431;51.352;6.412;2022-09-17T15:27:08;3.55;;;1.05;;
25535;SDS011;13431;51.352;6.412;2022-09-17T15:29:40;8.00;;;1.98;;
25535;SDS011;13431;51.352;6.412;2022-09-17T15:32:11;7.03;;;1.98;;
25535;SDS011;13431;51.352;6.412;2022-09-17T15:34:40;4.55;;;1.20;;
25535;SDS011;13431;51.352;6.412;2022-09-17T15:37:17;8.82;;;1.70;;
25535;SDS011;13431;51.352;6.412;2022-09-17T15:39:47;7.53;;;1.83;;
25535;SDS011;13431;51.352;6.412;2022-09-17T15:42:21;7.70;;;1.60;;
25535;SDS011;13431;51.352;6.412;2022-09-17T15:48:04;6.13;;;1.83;;
25535;SDS011;13431;51.352;6.412;2022-09-17T15:50:48;4.65;;;1.35;;
25535;SDS011;13431;51.352;6.412;2022-09-17T15:53:25;7.30;;;2.00;;
25535;SDS011;13431;51.352;6.412;2022-09-17T15:56:01;7.10;;;1.58;;
25535;SDS011;13431;51.352;6.412;2022-09-17T16:08:47;5.72;;;1.88;;
25535;SDS011;13431;51.352;6.412;2022-09-17T16:11:19;4.60;;;1.65;;
25535;SDS011;13431;51.352;6.412;2022-09-17T16:13:48;7.55;;;1.70;;
25535;SDS011;13431;51.352;6.412;2022-09-17T16:16:16;8.02;;;1.85;;
25535;SDS011;13431;51.352;6.412;2022-09-17T16:18:45;6.18;;;1.40;;
25535;SDS011;13431;51.352;6.412;2022-09-17T16:21:14;5.82;;;1.77;;
25535;SDS011;13431;51.352;6.412;2022-09-17T16:23:43;7.00;;;1.73;;
25535;SDS011;13431;51.352;6.412;2022-09-17T16:26:13;11.85;;;2.42;;
25535;SDS011;13431;51.352;6.412;2022-09-17T16:28:44;6.45;;;2.00;;
25535;SDS011;13431;51.352;6.412;2022-09-17T16:31:13;7.20;;;1.52;;
25535;SDS011;13431;51.352;6.412;2022-09-17T16:33:41;5.93;;;1.15;;
25535;SDS011;13431;51.352;6.412;2022-09-17T16:36:08;8.20;;;2.03;;
25535;SDS011;13431;51.352;6.412;2022-09-17T16:38:35;6.53;;;1.63;;
25535;SDS011;13431;51.352;6.412;2022-09-17T16:41:04;7.00;;;2.22;;
25535;SDS011;13431;51.352;6.412;2022-09-17T16:43:32;10.23;;;2.13;;
25535;SDS011;13431;51.352;6.412;2022-09-17T16:46:00;5.07;;;2.15;;
25535;SDS011;13431;51.352;6.412;2022-09-17T16:48:32;9.40;;;2.08;;
25535;SDS011;13431;51.352;6.412;2022-09-17T16:51:05;5.78;;;1.55;;
25535;SDS011;13431;51.352;6.412;2022-09-17T16:53:36;8.18;;;1.90;;
25535;SDS011;13431;51.352;6.412;2022-09-17T16:56:07;7.28;;;1.75;;
25535;SDS011;13431;51.352;6.412;2022-09-17T16:58:36;5.80;;;2.20;;
25535;SDS011;13431;51.352;6.412;2022-09-17T17:01:11;4.85;;;1.65;;
25535;SDS011;13431;51.352;6.412;2022-09-17T17:03:40;7.80;;;2.67;;
25535;SDS011;13431;51.352;6.412;2022-09-17T17:06:14;6.40;;;2.10;;
25535;SDS011;13431;51.352;6.412;2022-09-17T17:08:42;8.23;;;1.55;;
25535;SDS011;13431;51.352;6.412;2022-09-17T17:11:09;8.30;;;1.77;;
25535;SDS011;13431;51.352;6.412;2022-09-17T17:13:37;6.18;;;1.85;;
25535;SDS011;13431;51.352;6.412;2022-09-17T17:16:08;6.95;;;2.88;;
25535;SDS011;13431;51.352;6.412;2022-09-17T17:18:40;7.30;;;1.30;;
25535;SDS011;13431;51.352;6.412;2022-09-17T17:21:10;10.50;;;2.00;;
25535;SDS011;13431;51.352;6.412;2022-09-17T17:23:38;5.45;;;1.58;;
25535;SDS011;13431;51.352;6.412;2022-09-17T17:26:09;4.53;;;1.92;;
25535;SDS011;13431;51.352;6.412;2022-09-17T17:28:36;11.77;;;2.88;;
25535;SDS011;13431;51.352;6.412;2022-09-17T17:31:03;9.05;;;2.67;;
25535;SDS011;13431;51.352;6.412;2022-09-17T17:33:31;11.10;;;3.50;;
25535;SDS011;13431;51.352;6.412;2022-09-17T17:35:59;8.05;;;2.50;;
25535;SDS011;13431;51.352;6.412;2022-09-17T17:38:34;8.32;;;2.80;;
25535;SDS011;13431;51.352;6.412;2022-09-17T17:41:09;10.25;;;2.30;;
25535;SDS011;13431;51.352;6.412;2022-09-17T17:43:40;6.57;;;1.80;;
25535;SDS011;13431;51.352;6.412;2022-09-17T17:46:08;9.80;;;2.28;;
25535;SDS011;13431;51.352;6.412;2022-09-17T17:48:36;7.68;;;3.47;;
25535;SDS011;13431;51.352;6.412;2022-09-17T17:51:05;11.55;;;4.20;;
25535;SDS011;13431;51.352;6.412;2022-09-17T17:53:34;8.23;;;2.47;;
25535;SDS011;13431;51.352;6.412;2022-09-17T17:56:03;11.55;;;2.47;;
25535;SDS011;13431;51.352;6.412;2022-09-17T17:58:32;11.07;;;2.22;;
25535;SDS011;13431;51.352;6.412;2022-09-17T18:01:20;9.90;;;1.80;;
25535;SDS011;13431;51.352;6.412;2022-09-17T18:03:58;8.40;;;1.70;;
25535;SDS011;13431;51.352;6.412;2022-09-17T18:06:27;6.78;;;2.30;;
25535;SDS011;13431;51.352;6.412;2022-09-17T18:08:55;7.22;;;2.22;;
25535;SDS011;13431;51.352;6.412;2022-09-17T18:11:23;6.60;;;2.00;;
25535;SDS011;13431;51.352;6.412;2022-09-17T18:13:51;7.57;;;2.80;;